<?xml version="1.0" encoding="UTF-8" standalone="no" ?>
<gpx xmlns="http://www.topografix.com/GPX/1/1" xmlns:xsi="http://www.w3.org/2001/XMLSchema-instance" xsi:schemaLocation="http://www.topografix.com/GPX/1/1 http://www.topografix.com/GPX/1/1/gpx.xsd" version="1.1" creator="VisuGPX - https://www.visugpx.com">
  <metadata>
    <name>rando parcey</name>
    <desc><![CDATA[rando de reprise après les fêtes]]></desc>
  </metadata>
  <trk>
    <name><![CDATA[parcey suite]]></name>
    <trkseg>
      <trkpt lat="46.99975" lon="5.52362">
        <ele>221</ele>
        <time>2012-01-12T14:55:38Z</time>
      </trkpt>
      <trkpt lat="46.99975" lon="5.52362">
        <ele>183</ele>
        <time>2012-01-12T14:55:39Z</time>
      </trkpt>
      <trkpt lat="46.99975" lon="5.52362">
        <ele>186</ele>
        <time>2012-01-12T14:55:43Z</time>
      </trkpt>
      <trkpt lat="46.99975" lon="5.52362">
        <ele>188</ele>
        <time>2012-01-12T14:55:45Z</time>
      </trkpt>
      <trkpt lat="46.99975" lon="5.52362">
        <ele>191</ele>
        <time>2012-01-12T14:55:48Z</time>
      </trkpt>
      <trkpt lat="46.99975" lon="5.52362">
        <ele>195</ele>
        <time>2012-01-12T14:55:51Z</time>
      </trkpt>
      <trkpt lat="46.99975" lon="5.52362">
        <ele>195</ele>
        <time>2012-01-12T14:55:52Z</time>
      </trkpt>
      <trkpt lat="46.99975" lon="5.52362">
        <ele>199</ele>
        <time>2012-01-12T14:55:57Z</time>
      </trkpt>
      <trkpt lat="46.99975" lon="5.52362">
        <ele>202</ele>
        <time>2012-01-12T14:56:02Z</time>
      </trkpt>
      <trkpt lat="46.99975" lon="5.52362">
        <ele>205</ele>
        <time>2012-01-12T14:56:07Z</time>
      </trkpt>
      <trkpt lat="46.99975" lon="5.52362">
        <ele>207</ele>
        <time>2012-01-12T14:56:11Z</time>
      </trkpt>
      <trkpt lat="46.99975" lon="5.52362">
        <ele>210</ele>
        <time>2012-01-12T14:56:18Z</time>
      </trkpt>
      <trkpt lat="46.99975" lon="5.52362">
        <ele>214</ele>
        <time>2012-01-12T14:56:28Z</time>
      </trkpt>
      <trkpt lat="46.99975" lon="5.52362">
        <ele>215</ele>
        <time>2012-01-12T14:56:33Z</time>
      </trkpt>
      <trkpt lat="46.99975" lon="5.52362">
        <ele>218</ele>
        <time>2012-01-12T14:56:54Z</time>
      </trkpt>
      <trkpt lat="46.99974" lon="5.52362">
        <ele>220</ele>
        <time>2012-01-12T14:57:15Z</time>
      </trkpt>
      <trkpt lat="46.99972" lon="5.52365">
        <ele>221</ele>
        <time>2012-01-12T15:00:05Z</time>
      </trkpt>
      <trkpt lat="46.99968" lon="5.52366">
        <ele>222</ele>
        <time>2012-01-12T15:00:32Z</time>
      </trkpt>
      <trkpt lat="46.99963" lon="5.52372">
        <ele>221</ele>
        <time>2012-01-12T15:00:54Z</time>
      </trkpt>
      <trkpt lat="46.99951" lon="5.52372">
        <ele>221</ele>
        <time>2012-01-12T15:01:19Z</time>
      </trkpt>
      <trkpt lat="46.99947" lon="5.52371">
        <ele>221</ele>
        <time>2012-01-12T15:01:22Z</time>
      </trkpt>
      <trkpt lat="46.99929" lon="5.52376">
        <ele>222</ele>
        <time>2012-01-12T15:01:41Z</time>
      </trkpt>
      <trkpt lat="46.99908" lon="5.52372">
        <ele>222</ele>
        <time>2012-01-12T15:02:00Z</time>
      </trkpt>
      <trkpt lat="46.9987" lon="5.52369">
        <ele>225</ele>
        <time>2012-01-12T15:02:31Z</time>
      </trkpt>
      <trkpt lat="46.99833" lon="5.5236">
        <ele>227</ele>
        <time>2012-01-12T15:02:59Z</time>
      </trkpt>
      <trkpt lat="46.99823" lon="5.52362">
        <ele>227</ele>
        <time>2012-01-12T15:03:06Z</time>
      </trkpt>
      <trkpt lat="46.99798" lon="5.52365">
        <ele>228</ele>
        <time>2012-01-12T15:03:24Z</time>
      </trkpt>
      <trkpt lat="46.99779" lon="5.52365">
        <ele>229</ele>
        <time>2012-01-12T15:03:41Z</time>
      </trkpt>
      <trkpt lat="46.99758" lon="5.52364">
        <ele>229</ele>
        <time>2012-01-12T15:03:57Z</time>
      </trkpt>
      <trkpt lat="46.99724" lon="5.52367">
        <ele>231</ele>
        <time>2012-01-12T15:04:21Z</time>
      </trkpt>
      <trkpt lat="46.99706" lon="5.52377">
        <ele>231</ele>
        <time>2012-01-12T15:04:37Z</time>
      </trkpt>
      <trkpt lat="46.99691" lon="5.52389">
        <ele>232</ele>
        <time>2012-01-12T15:04:49Z</time>
      </trkpt>
      <trkpt lat="46.99672" lon="5.52413">
        <ele>231</ele>
        <time>2012-01-12T15:05:07Z</time>
      </trkpt>
      <trkpt lat="46.99659" lon="5.52432">
        <ele>231</ele>
        <time>2012-01-12T15:05:21Z</time>
      </trkpt>
      <trkpt lat="46.99646" lon="5.52452">
        <ele>231</ele>
        <time>2012-01-12T15:05:37Z</time>
      </trkpt>
      <trkpt lat="46.99629" lon="5.52469">
        <ele>232</ele>
        <time>2012-01-12T15:05:53Z</time>
      </trkpt>
      <trkpt lat="46.9961" lon="5.52487">
        <ele>232</ele>
        <time>2012-01-12T15:06:11Z</time>
      </trkpt>
      <trkpt lat="46.99598" lon="5.52496">
        <ele>232</ele>
        <time>2012-01-12T15:06:23Z</time>
      </trkpt>
      <trkpt lat="46.99578" lon="5.52504">
        <ele>233</ele>
        <time>2012-01-12T15:06:42Z</time>
      </trkpt>
      <trkpt lat="46.99559" lon="5.52511">
        <ele>233</ele>
        <time>2012-01-12T15:06:59Z</time>
      </trkpt>
      <trkpt lat="46.99537" lon="5.52511">
        <ele>233</ele>
        <time>2012-01-12T15:07:18Z</time>
      </trkpt>
      <trkpt lat="46.99518" lon="5.52502">
        <ele>232</ele>
        <time>2012-01-12T15:07:33Z</time>
      </trkpt>
      <trkpt lat="46.99502" lon="5.52487">
        <ele>232</ele>
        <time>2012-01-12T15:07:50Z</time>
      </trkpt>
      <trkpt lat="46.9949" lon="5.52474">
        <ele>232</ele>
        <time>2012-01-12T15:08:03Z</time>
      </trkpt>
      <trkpt lat="46.99477" lon="5.52458">
        <ele>231</ele>
        <time>2012-01-12T15:08:17Z</time>
      </trkpt>
      <trkpt lat="46.99459" lon="5.52442">
        <ele>231</ele>
        <time>2012-01-12T15:08:33Z</time>
      </trkpt>
      <trkpt lat="46.99444" lon="5.52426">
        <ele>230</ele>
        <time>2012-01-12T15:08:48Z</time>
      </trkpt>
      <trkpt lat="46.99421" lon="5.52411">
        <ele>230</ele>
        <time>2012-01-12T15:09:07Z</time>
      </trkpt>
      <trkpt lat="46.99403" lon="5.52401">
        <ele>230</ele>
        <time>2012-01-12T15:09:25Z</time>
      </trkpt>
      <trkpt lat="46.99388" lon="5.52393">
        <ele>230</ele>
        <time>2012-01-12T15:09:39Z</time>
      </trkpt>
      <trkpt lat="46.99369" lon="5.5238">
        <ele>230</ele>
        <time>2012-01-12T15:09:56Z</time>
      </trkpt>
      <trkpt lat="46.9935" lon="5.52368">
        <ele>230</ele>
        <time>2012-01-12T15:10:14Z</time>
      </trkpt>
      <trkpt lat="46.99332" lon="5.52356">
        <ele>230</ele>
        <time>2012-01-12T15:10:31Z</time>
      </trkpt>
      <trkpt lat="46.99319" lon="5.5235">
        <ele>230</ele>
        <time>2012-01-12T15:10:42Z</time>
      </trkpt>
      <trkpt lat="46.99301" lon="5.52337">
        <ele>231</ele>
        <time>2012-01-12T15:11:00Z</time>
      </trkpt>
      <trkpt lat="46.99284" lon="5.52321">
        <ele>230</ele>
        <time>2012-01-12T15:11:17Z</time>
      </trkpt>
      <trkpt lat="46.99262" lon="5.5231">
        <ele>230</ele>
        <time>2012-01-12T15:11:36Z</time>
      </trkpt>
      <trkpt lat="46.99248" lon="5.52302">
        <ele>230</ele>
        <time>2012-01-12T15:11:50Z</time>
      </trkpt>
      <trkpt lat="46.99236" lon="5.52298">
        <ele>231</ele>
        <time>2012-01-12T15:12:00Z</time>
      </trkpt>
      <trkpt lat="46.99234" lon="5.52296">
        <ele>231</ele>
        <time>2012-01-12T15:12:02Z</time>
      </trkpt>
      <trkpt lat="46.99211" lon="5.52294">
        <ele>230</ele>
        <time>2012-01-12T15:12:23Z</time>
      </trkpt>
      <trkpt lat="46.99193" lon="5.52286">
        <ele>230</ele>
        <time>2012-01-12T15:12:42Z</time>
      </trkpt>
      <trkpt lat="46.99167" lon="5.52274">
        <ele>230</ele>
        <time>2012-01-12T15:13:04Z</time>
      </trkpt>
      <trkpt lat="46.99143" lon="5.52265">
        <ele>230</ele>
        <time>2012-01-12T15:13:25Z</time>
      </trkpt>
      <trkpt lat="46.99118" lon="5.52249">
        <ele>230</ele>
        <time>2012-01-12T15:13:49Z</time>
      </trkpt>
      <trkpt lat="46.99086" lon="5.5223">
        <ele>231</ele>
        <time>2012-01-12T15:14:12Z</time>
      </trkpt>
      <trkpt lat="46.99064" lon="5.52217">
        <ele>231</ele>
        <time>2012-01-12T15:14:30Z</time>
      </trkpt>
      <trkpt lat="46.99036" lon="5.52192">
        <ele>230</ele>
        <time>2012-01-12T15:14:55Z</time>
      </trkpt>
      <trkpt lat="46.99021" lon="5.52183">
        <ele>230</ele>
        <time>2012-01-12T15:15:13Z</time>
      </trkpt>
      <trkpt lat="46.99004" lon="5.52169">
        <ele>230</ele>
        <time>2012-01-12T15:15:31Z</time>
      </trkpt>
      <trkpt lat="46.98981" lon="5.52162">
        <ele>229</ele>
        <time>2012-01-12T15:15:48Z</time>
      </trkpt>
      <trkpt lat="46.9897" lon="5.52154">
        <ele>228</ele>
        <time>2012-01-12T15:15:59Z</time>
      </trkpt>
      <trkpt lat="46.98948" lon="5.52146">
        <ele>228</ele>
        <time>2012-01-12T15:16:18Z</time>
      </trkpt>
      <trkpt lat="46.98929" lon="5.52131">
        <ele>227</ele>
        <time>2012-01-12T15:16:39Z</time>
      </trkpt>
      <trkpt lat="46.98903" lon="5.52123">
        <ele>227</ele>
        <time>2012-01-12T15:16:59Z</time>
      </trkpt>
      <trkpt lat="46.98879" lon="5.52106">
        <ele>227</ele>
        <time>2012-01-12T15:17:21Z</time>
      </trkpt>
      <trkpt lat="46.98849" lon="5.52096">
        <ele>226</ele>
        <time>2012-01-12T15:17:43Z</time>
      </trkpt>
      <trkpt lat="46.98834" lon="5.52085">
        <ele>226</ele>
        <time>2012-01-12T15:17:57Z</time>
      </trkpt>
      <trkpt lat="46.98815" lon="5.52074">
        <ele>225</ele>
        <time>2012-01-12T15:18:15Z</time>
      </trkpt>
      <trkpt lat="46.98793" lon="5.52061">
        <ele>223</ele>
        <time>2012-01-12T15:18:33Z</time>
      </trkpt>
      <trkpt lat="46.98768" lon="5.52049">
        <ele>221</ele>
        <time>2012-01-12T15:18:53Z</time>
      </trkpt>
      <trkpt lat="46.98753" lon="5.52046">
        <ele>221</ele>
        <time>2012-01-12T15:19:06Z</time>
      </trkpt>
      <trkpt lat="46.9874" lon="5.52033">
        <ele>220</ele>
        <time>2012-01-12T15:19:22Z</time>
      </trkpt>
      <trkpt lat="46.98718" lon="5.52029">
        <ele>219</ele>
        <time>2012-01-12T15:19:43Z</time>
      </trkpt>
      <trkpt lat="46.98694" lon="5.52017">
        <ele>220</ele>
        <time>2012-01-12T15:20:09Z</time>
      </trkpt>
      <trkpt lat="46.98674" lon="5.52005">
        <ele>221</ele>
        <time>2012-01-12T15:20:27Z</time>
      </trkpt>
      <trkpt lat="46.9866" lon="5.51996">
        <ele>220</ele>
        <time>2012-01-12T15:20:46Z</time>
      </trkpt>
      <trkpt lat="46.9864" lon="5.51984">
        <ele>221</ele>
        <time>2012-01-12T15:21:04Z</time>
      </trkpt>
      <trkpt lat="46.98622" lon="5.51971">
        <ele>224</ele>
        <time>2012-01-12T15:21:26Z</time>
      </trkpt>
      <trkpt lat="46.98609" lon="5.51964">
        <ele>224</ele>
        <time>2012-01-12T15:21:47Z</time>
      </trkpt>
      <trkpt lat="46.98595" lon="5.51944">
        <ele>225</ele>
        <time>2012-01-12T15:22:37Z</time>
      </trkpt>
      <trkpt lat="46.98605" lon="5.51915">
        <ele>227</ele>
        <time>2012-01-12T15:23:01Z</time>
      </trkpt>
      <trkpt lat="46.98614" lon="5.51894">
        <ele>227</ele>
        <time>2012-01-12T15:23:17Z</time>
      </trkpt>
      <trkpt lat="46.98627" lon="5.51874">
        <ele>227</ele>
        <time>2012-01-12T15:23:33Z</time>
      </trkpt>
      <trkpt lat="46.98637" lon="5.51851">
        <ele>228</ele>
        <time>2012-01-12T15:23:49Z</time>
      </trkpt>
      <trkpt lat="46.98648" lon="5.51825">
        <ele>228</ele>
        <time>2012-01-12T15:24:09Z</time>
      </trkpt>
      <trkpt lat="46.98657" lon="5.51804">
        <ele>228</ele>
        <time>2012-01-12T15:24:25Z</time>
      </trkpt>
      <trkpt lat="46.98671" lon="5.51781">
        <ele>228</ele>
        <time>2012-01-12T15:24:43Z</time>
      </trkpt>
      <trkpt lat="46.98686" lon="5.51753">
        <ele>227</ele>
        <time>2012-01-12T15:25:06Z</time>
      </trkpt>
      <trkpt lat="46.98695" lon="5.51726">
        <ele>226</ele>
        <time>2012-01-12T15:25:30Z</time>
      </trkpt>
      <trkpt lat="46.98707" lon="5.51686">
        <ele>223</ele>
        <time>2012-01-12T15:26:00Z</time>
      </trkpt>
      <trkpt lat="46.98718" lon="5.51651">
        <ele>219</ele>
        <time>2012-01-12T15:26:26Z</time>
      </trkpt>
      <trkpt lat="46.98723" lon="5.51639">
        <ele>220</ele>
        <time>2012-01-12T15:26:58Z</time>
      </trkpt>
      <trkpt lat="46.98728" lon="5.51628">
        <ele>223</ele>
        <time>2012-01-12T15:27:15Z</time>
      </trkpt>
      <trkpt lat="46.98759" lon="5.51637">
        <ele>225</ele>
        <time>2012-01-12T15:27:47Z</time>
      </trkpt>
      <trkpt lat="46.98786" lon="5.51643">
        <ele>227</ele>
        <time>2012-01-12T15:28:19Z</time>
      </trkpt>
      <trkpt lat="46.98835" lon="5.51653">
        <ele>227</ele>
        <time>2012-01-12T15:29:01Z</time>
      </trkpt>
      <trkpt lat="46.9886" lon="5.51658">
        <ele>227</ele>
        <time>2012-01-12T15:29:23Z</time>
      </trkpt>
      <trkpt lat="46.98893" lon="5.51664">
        <ele>227</ele>
        <time>2012-01-12T15:29:52Z</time>
      </trkpt>
      <trkpt lat="46.98923" lon="5.51673">
        <ele>228</ele>
        <time>2012-01-12T15:30:16Z</time>
      </trkpt>
      <trkpt lat="46.98924" lon="5.51672">
        <ele>228</ele>
        <time>2012-01-12T15:30:18Z</time>
      </trkpt>
      <trkpt lat="46.98933" lon="5.51658">
        <ele>229</ele>
        <time>2012-01-12T15:30:34Z</time>
      </trkpt>
      <trkpt lat="46.9892" lon="5.51614">
        <ele>230</ele>
        <time>2012-01-12T15:30:59Z</time>
      </trkpt>
      <trkpt lat="46.9891" lon="5.5158">
        <ele>231</ele>
        <time>2012-01-12T15:31:17Z</time>
      </trkpt>
      <trkpt lat="46.98906" lon="5.51567">
        <ele>231</ele>
        <time>2012-01-12T15:31:25Z</time>
      </trkpt>
      <trkpt lat="46.98906" lon="5.51565">
        <ele>231</ele>
        <time>2012-01-12T15:31:27Z</time>
      </trkpt>
      <trkpt lat="46.98905" lon="5.51555">
        <ele>231</ele>
        <time>2012-01-12T15:31:33Z</time>
      </trkpt>
      <trkpt lat="46.98901" lon="5.51518">
        <ele>231</ele>
        <time>2012-01-12T15:31:52Z</time>
      </trkpt>
      <trkpt lat="46.98899" lon="5.51504">
        <ele>231</ele>
        <time>2012-01-12T15:31:59Z</time>
      </trkpt>
      <trkpt lat="46.98895" lon="5.51488">
        <ele>230</ele>
        <time>2012-01-12T15:32:09Z</time>
      </trkpt>
      <trkpt lat="46.98892" lon="5.51472">
        <ele>229</ele>
        <time>2012-01-12T15:32:19Z</time>
      </trkpt>
      <trkpt lat="46.98892" lon="5.51468">
        <ele>229</ele>
        <time>2012-01-12T15:32:21Z</time>
      </trkpt>
      <trkpt lat="46.98886" lon="5.51443">
        <ele>227</ele>
        <time>2012-01-12T15:32:36Z</time>
      </trkpt>
      <trkpt lat="46.98886" lon="5.51441">
        <ele>227</ele>
        <time>2012-01-12T15:32:37Z</time>
      </trkpt>
      <trkpt lat="46.98885" lon="5.51434">
        <ele>227</ele>
        <time>2012-01-12T15:32:41Z</time>
      </trkpt>
      <trkpt lat="46.98881" lon="5.51425">
        <ele>227</ele>
        <time>2012-01-12T15:32:46Z</time>
      </trkpt>
      <trkpt lat="46.98878" lon="5.51406">
        <ele>225</ele>
        <time>2012-01-12T15:32:57Z</time>
      </trkpt>
      <trkpt lat="46.98871" lon="5.51384">
        <ele>226</ele>
        <time>2012-01-12T15:33:12Z</time>
      </trkpt>
      <trkpt lat="46.98866" lon="5.51347">
        <ele>227</ele>
        <time>2012-01-12T15:33:33Z</time>
      </trkpt>
      <trkpt lat="46.98854" lon="5.51322">
        <ele>228</ele>
        <time>2012-01-12T15:33:51Z</time>
      </trkpt>
      <trkpt lat="46.9885" lon="5.51296">
        <ele>228</ele>
        <time>2012-01-12T15:34:04Z</time>
      </trkpt>
      <trkpt lat="46.98849" lon="5.51292">
        <ele>229</ele>
        <time>2012-01-12T15:34:06Z</time>
      </trkpt>
      <trkpt lat="46.98847" lon="5.51283">
        <ele>229</ele>
        <time>2012-01-12T15:34:12Z</time>
      </trkpt>
      <trkpt lat="46.98845" lon="5.51277">
        <ele>229</ele>
        <time>2012-01-12T15:34:16Z</time>
      </trkpt>
      <trkpt lat="46.98835" lon="5.51246">
        <ele>230</ele>
        <time>2012-01-12T15:34:35Z</time>
      </trkpt>
      <trkpt lat="46.98828" lon="5.51203">
        <ele>232</ele>
        <time>2012-01-12T15:34:57Z</time>
      </trkpt>
      <trkpt lat="46.98818" lon="5.51159">
        <ele>233</ele>
        <time>2012-01-12T15:35:20Z</time>
      </trkpt>
      <trkpt lat="46.98815" lon="5.51151">
        <ele>233</ele>
        <time>2012-01-12T15:35:24Z</time>
      </trkpt>
      <trkpt lat="46.9881" lon="5.51119">
        <ele>234</ele>
        <time>2012-01-12T15:35:43Z</time>
      </trkpt>
      <trkpt lat="46.98799" lon="5.51079">
        <ele>235</ele>
        <time>2012-01-12T15:36:06Z</time>
      </trkpt>
      <trkpt lat="46.98788" lon="5.51036">
        <ele>235</ele>
        <time>2012-01-12T15:36:28Z</time>
      </trkpt>
      <trkpt lat="46.98784" lon="5.51004">
        <ele>235</ele>
        <time>2012-01-12T15:36:53Z</time>
      </trkpt>
      <trkpt lat="46.98811" lon="5.50975">
        <ele>236</ele>
        <time>2012-01-12T15:37:20Z</time>
      </trkpt>
      <trkpt lat="46.98834" lon="5.50968">
        <ele>236</ele>
        <time>2012-01-12T15:37:47Z</time>
      </trkpt>
      <trkpt lat="46.98874" lon="5.5095">
        <ele>237</ele>
        <time>2012-01-12T15:38:26Z</time>
      </trkpt>
      <trkpt lat="46.98877" lon="5.50945">
        <ele>237</ele>
        <time>2012-01-12T15:38:31Z</time>
      </trkpt>
      <trkpt lat="46.98905" lon="5.50939">
        <ele>237</ele>
        <time>2012-01-12T15:38:55Z</time>
      </trkpt>
      <trkpt lat="46.98931" lon="5.50919">
        <ele>237</ele>
        <time>2012-01-12T15:39:25Z</time>
      </trkpt>
      <trkpt lat="46.98958" lon="5.50907">
        <ele>238</ele>
        <time>2012-01-12T15:39:50Z</time>
      </trkpt>
      <trkpt lat="46.98983" lon="5.50888">
        <ele>238</ele>
        <time>2012-01-12T15:40:18Z</time>
      </trkpt>
      <trkpt lat="46.99006" lon="5.50879">
        <ele>239</ele>
        <time>2012-01-12T15:40:41Z</time>
      </trkpt>
      <trkpt lat="46.99035" lon="5.50867">
        <ele>239</ele>
        <time>2012-01-12T15:41:06Z</time>
      </trkpt>
      <trkpt lat="46.99054" lon="5.50854">
        <ele>240</ele>
        <time>2012-01-12T15:41:27Z</time>
      </trkpt>
      <trkpt lat="46.99075" lon="5.50851">
        <ele>240</ele>
        <time>2012-01-12T15:41:44Z</time>
      </trkpt>
      <trkpt lat="46.99068" lon="5.50823">
        <ele>241</ele>
        <time>2012-01-12T15:42:02Z</time>
      </trkpt>
      <trkpt lat="46.99064" lon="5.50817">
        <ele>241</ele>
        <time>2012-01-12T15:42:06Z</time>
      </trkpt>
      <trkpt lat="46.99062" lon="5.50808">
        <ele>241</ele>
        <time>2012-01-12T15:42:10Z</time>
      </trkpt>
      <trkpt lat="46.99053" lon="5.50795">
        <ele>241</ele>
        <time>2012-01-12T15:42:24Z</time>
      </trkpt>
      <trkpt lat="46.99049" lon="5.50787">
        <ele>241</ele>
        <time>2012-01-12T15:42:30Z</time>
      </trkpt>
      <trkpt lat="46.9906" lon="5.50769">
        <ele>241</ele>
        <time>2012-01-12T15:42:46Z</time>
      </trkpt>
      <trkpt lat="46.99068" lon="5.50759">
        <ele>242</ele>
        <time>2012-01-12T15:42:56Z</time>
      </trkpt>
      <trkpt lat="46.99077" lon="5.50745">
        <ele>241</ele>
        <time>2012-01-12T15:43:16Z</time>
      </trkpt>
      <trkpt lat="46.99079" lon="5.50743">
        <ele>241</ele>
        <time>2012-01-12T15:44:25Z</time>
      </trkpt>
      <trkpt lat="46.99079" lon="5.50748">
        <ele>241</ele>
        <time>2012-01-12T15:45:14Z</time>
      </trkpt>
      <trkpt lat="46.99079" lon="5.50747">
        <ele>241</ele>
        <time>2012-01-12T15:45:40Z</time>
      </trkpt>
      <trkpt lat="46.99071" lon="5.50753">
        <ele>240</ele>
        <time>2012-01-12T15:48:49Z</time>
      </trkpt>
      <trkpt lat="46.99072" lon="5.50758">
        <ele>240</ele>
        <time>2012-01-12T15:49:20Z</time>
      </trkpt>
      <trkpt lat="46.9907" lon="5.50764">
        <ele>240</ele>
        <time>2012-01-12T15:50:00Z</time>
      </trkpt>
      <trkpt lat="46.99069" lon="5.50766">
        <ele>240</ele>
        <time>2012-01-12T15:50:02Z</time>
      </trkpt>
      <trkpt lat="46.99066" lon="5.50781">
        <ele>240</ele>
        <time>2012-01-12T15:50:20Z</time>
      </trkpt>
      <trkpt lat="46.99065" lon="5.50777">
        <ele>240</ele>
        <time>2012-01-12T15:50:55Z</time>
      </trkpt>
      <trkpt lat="46.99072" lon="5.50756">
        <ele>240</ele>
        <time>2012-01-12T15:51:12Z</time>
      </trkpt>
      <trkpt lat="46.99077" lon="5.50739">
        <ele>238</ele>
        <time>2012-01-12T15:54:51Z</time>
      </trkpt>
      <trkpt lat="46.99098" lon="5.5072">
        <ele>238</ele>
        <time>2012-01-12T15:55:13Z</time>
      </trkpt>
      <trkpt lat="46.9912" lon="5.50709">
        <ele>238</ele>
        <time>2012-01-12T15:55:32Z</time>
      </trkpt>
      <trkpt lat="46.99145" lon="5.50697">
        <ele>238</ele>
        <time>2012-01-12T15:55:52Z</time>
      </trkpt>
      <trkpt lat="46.99177" lon="5.50682">
        <ele>238</ele>
        <time>2012-01-12T15:56:17Z</time>
      </trkpt>
      <trkpt lat="46.99203" lon="5.50667">
        <ele>239</ele>
        <time>2012-01-12T15:56:40Z</time>
      </trkpt>
      <trkpt lat="46.99233" lon="5.5065">
        <ele>240</ele>
        <time>2012-01-12T15:57:07Z</time>
      </trkpt>
      <trkpt lat="46.99255" lon="5.50639">
        <ele>240</ele>
        <time>2012-01-12T15:57:26Z</time>
      </trkpt>
      <trkpt lat="46.9927" lon="5.50629">
        <ele>240</ele>
        <time>2012-01-12T15:57:39Z</time>
      </trkpt>
      <trkpt lat="46.99291" lon="5.50616">
        <ele>242</ele>
        <time>2012-01-12T15:57:57Z</time>
      </trkpt>
      <trkpt lat="46.99308" lon="5.50603">
        <ele>243</ele>
        <time>2012-01-12T15:58:13Z</time>
      </trkpt>
      <trkpt lat="46.99329" lon="5.50581">
        <ele>244</ele>
        <time>2012-01-12T15:58:35Z</time>
      </trkpt>
      <trkpt lat="46.99348" lon="5.50563">
        <ele>244</ele>
        <time>2012-01-12T15:58:54Z</time>
      </trkpt>
      <trkpt lat="46.99373" lon="5.50545">
        <ele>245</ele>
        <time>2012-01-12T15:59:16Z</time>
      </trkpt>
      <trkpt lat="46.99397" lon="5.50532">
        <ele>244</ele>
        <time>2012-01-12T15:59:39Z</time>
      </trkpt>
      <trkpt lat="46.99421" lon="5.50506">
        <ele>243</ele>
        <time>2012-01-12T16:00:03Z</time>
      </trkpt>
      <trkpt lat="46.99435" lon="5.5049">
        <ele>243</ele>
        <time>2012-01-12T16:00:19Z</time>
      </trkpt>
      <trkpt lat="46.99445" lon="5.50481">
        <ele>242</ele>
        <time>2012-01-12T16:00:31Z</time>
      </trkpt>
      <trkpt lat="46.99449" lon="5.50471">
        <ele>242</ele>
        <time>2012-01-12T16:00:37Z</time>
      </trkpt>
      <trkpt lat="46.99454" lon="5.50458">
        <ele>242</ele>
        <time>2012-01-12T16:00:46Z</time>
      </trkpt>
      <trkpt lat="46.99454" lon="5.50455">
        <ele>242</ele>
        <time>2012-01-12T16:00:48Z</time>
      </trkpt>
      <trkpt lat="46.99451" lon="5.5045">
        <ele>242</ele>
        <time>2012-01-12T16:00:52Z</time>
      </trkpt>
      <trkpt lat="46.99447" lon="5.50433">
        <ele>241</ele>
        <time>2012-01-12T16:01:07Z</time>
      </trkpt>
      <trkpt lat="46.99439" lon="5.50406">
        <ele>240</ele>
        <time>2012-01-12T16:01:24Z</time>
      </trkpt>
      <trkpt lat="46.99429" lon="5.50387">
        <ele>240</ele>
        <time>2012-01-12T16:01:40Z</time>
      </trkpt>
      <trkpt lat="46.99424" lon="5.50384">
        <ele>240</ele>
        <time>2012-01-12T16:01:55Z</time>
      </trkpt>
      <trkpt lat="46.99427" lon="5.5037">
        <ele>240</ele>
        <time>2012-01-12T16:02:14Z</time>
      </trkpt>
      <trkpt lat="46.99437" lon="5.50355">
        <ele>240</ele>
        <time>2012-01-12T16:02:29Z</time>
      </trkpt>
      <trkpt lat="46.99446" lon="5.5034">
        <ele>240</ele>
        <time>2012-01-12T16:02:43Z</time>
      </trkpt>
      <trkpt lat="46.99458" lon="5.50331">
        <ele>240</ele>
        <time>2012-01-12T16:02:56Z</time>
      </trkpt>
      <trkpt lat="46.99471" lon="5.50329">
        <ele>241</ele>
        <time>2012-01-12T16:03:10Z</time>
      </trkpt>
      <trkpt lat="46.99486" lon="5.50324">
        <ele>241</ele>
        <time>2012-01-12T16:03:26Z</time>
      </trkpt>
      <trkpt lat="46.995" lon="5.50314">
        <ele>242</ele>
        <time>2012-01-12T16:03:48Z</time>
      </trkpt>
      <trkpt lat="46.9951" lon="5.50304">
        <ele>242</ele>
        <time>2012-01-12T16:04:06Z</time>
      </trkpt>
      <trkpt lat="46.9951" lon="5.50301">
        <ele>243</ele>
        <time>2012-01-12T16:04:30Z</time>
      </trkpt>
      <trkpt lat="46.99514" lon="5.50295">
        <ele>243</ele>
        <time>2012-01-12T16:04:48Z</time>
      </trkpt>
      <trkpt lat="46.9952" lon="5.50295">
        <ele>243</ele>
        <time>2012-01-12T16:05:10Z</time>
      </trkpt>
      <trkpt lat="46.99532" lon="5.50295">
        <ele>243</ele>
        <time>2012-01-12T16:05:32Z</time>
      </trkpt>
      <trkpt lat="46.99549" lon="5.50288">
        <ele>243</ele>
        <time>2012-01-12T16:05:52Z</time>
      </trkpt>
      <trkpt lat="46.99569" lon="5.50278">
        <ele>243</ele>
        <time>2012-01-12T16:06:09Z</time>
      </trkpt>
      <trkpt lat="46.99576" lon="5.50273">
        <ele>243</ele>
        <time>2012-01-12T16:06:14Z</time>
      </trkpt>
      <trkpt lat="46.99588" lon="5.50271">
        <ele>242</ele>
        <time>2012-01-12T16:06:23Z</time>
      </trkpt>
      <trkpt lat="46.99597" lon="5.50261">
        <ele>242</ele>
        <time>2012-01-12T16:06:35Z</time>
      </trkpt>
      <trkpt lat="46.9959" lon="5.50234">
        <ele>240</ele>
        <time>2012-01-12T16:06:49Z</time>
      </trkpt>
      <trkpt lat="46.9959" lon="5.50227">
        <ele>240</ele>
        <time>2012-01-12T16:06:52Z</time>
      </trkpt>
      <trkpt lat="46.99583" lon="5.50201">
        <ele>240</ele>
        <time>2012-01-12T16:07:06Z</time>
      </trkpt>
      <trkpt lat="46.99577" lon="5.50186">
        <ele>240</ele>
        <time>2012-01-12T16:07:14Z</time>
      </trkpt>
      <trkpt lat="46.99577" lon="5.50181">
        <ele>240</ele>
        <time>2012-01-12T16:07:16Z</time>
      </trkpt>
      <trkpt lat="46.99576" lon="5.50177">
        <ele>240</ele>
        <time>2012-01-12T16:07:18Z</time>
      </trkpt>
      <trkpt lat="46.99569" lon="5.50156">
        <ele>240</ele>
        <time>2012-01-12T16:07:33Z</time>
      </trkpt>
      <trkpt lat="46.9956" lon="5.50149">
        <ele>240</ele>
        <time>2012-01-12T16:07:42Z</time>
      </trkpt>
      <trkpt lat="46.99535" lon="5.50137">
        <ele>241</ele>
        <time>2012-01-12T16:08:01Z</time>
      </trkpt>
      <trkpt lat="46.99513" lon="5.5013">
        <ele>242</ele>
        <time>2012-01-12T16:08:13Z</time>
      </trkpt>
      <trkpt lat="46.99506" lon="5.50127">
        <ele>243</ele>
        <time>2012-01-12T16:08:17Z</time>
      </trkpt>
      <trkpt lat="46.99498" lon="5.50124">
        <ele>243</ele>
        <time>2012-01-12T16:08:22Z</time>
      </trkpt>
      <trkpt lat="46.99488" lon="5.50112">
        <ele>244</ele>
        <time>2012-01-12T16:08:32Z</time>
      </trkpt>
      <trkpt lat="46.99485" lon="5.50082">
        <ele>246</ele>
        <time>2012-01-12T16:08:48Z</time>
      </trkpt>
      <trkpt lat="46.99481" lon="5.50055">
        <ele>247</ele>
        <time>2012-01-12T16:09:05Z</time>
      </trkpt>
      <trkpt lat="46.99468" lon="5.50006">
        <ele>247</ele>
        <time>2012-01-12T16:09:31Z</time>
      </trkpt>
      <trkpt lat="46.99457" lon="5.49966">
        <ele>246</ele>
        <time>2012-01-12T16:09:55Z</time>
      </trkpt>
      <trkpt lat="46.99457" lon="5.49951">
        <ele>245</ele>
        <time>2012-01-12T16:10:02Z</time>
      </trkpt>
      <trkpt lat="46.99458" lon="5.49948">
        <ele>245</ele>
        <time>2012-01-12T16:10:04Z</time>
      </trkpt>
      <trkpt lat="46.99462" lon="5.49937">
        <ele>245</ele>
        <time>2012-01-12T16:10:11Z</time>
      </trkpt>
      <trkpt lat="46.99465" lon="5.49932">
        <ele>245</ele>
        <time>2012-01-12T16:10:15Z</time>
      </trkpt>
      <trkpt lat="46.99468" lon="5.4993">
        <ele>244</ele>
        <time>2012-01-12T16:10:19Z</time>
      </trkpt>
      <trkpt lat="46.99485" lon="5.49926">
        <ele>243</ele>
        <time>2012-01-12T16:10:35Z</time>
      </trkpt>
      <trkpt lat="46.99514" lon="5.49924">
        <ele>243</ele>
        <time>2012-01-12T16:10:54Z</time>
      </trkpt>
      <trkpt lat="46.99518" lon="5.49923">
        <ele>242</ele>
        <time>2012-01-12T16:10:58Z</time>
      </trkpt>
      <trkpt lat="46.99538" lon="5.49917">
        <ele>243</ele>
        <time>2012-01-12T16:11:11Z</time>
      </trkpt>
      <trkpt lat="46.99554" lon="5.49909">
        <ele>244</ele>
        <time>2012-01-12T16:11:23Z</time>
      </trkpt>
      <trkpt lat="46.99561" lon="5.49904">
        <ele>244</ele>
        <time>2012-01-12T16:11:29Z</time>
      </trkpt>
      <trkpt lat="46.99564" lon="5.49901">
        <ele>244</ele>
        <time>2012-01-12T16:11:31Z</time>
      </trkpt>
      <trkpt lat="46.99565" lon="5.49898">
        <ele>244</ele>
        <time>2012-01-12T16:11:33Z</time>
      </trkpt>
      <trkpt lat="46.9957" lon="5.4989">
        <ele>244</ele>
        <time>2012-01-12T16:11:38Z</time>
      </trkpt>
      <trkpt lat="46.99578" lon="5.4988">
        <ele>244</ele>
        <time>2012-01-12T16:11:46Z</time>
      </trkpt>
      <trkpt lat="46.99581" lon="5.49876">
        <ele>244</ele>
        <time>2012-01-12T16:11:50Z</time>
      </trkpt>
      <trkpt lat="46.99589" lon="5.49873">
        <ele>245</ele>
        <time>2012-01-12T16:11:56Z</time>
      </trkpt>
      <trkpt lat="46.99597" lon="5.49868">
        <ele>244</ele>
        <time>2012-01-12T16:12:01Z</time>
      </trkpt>
      <trkpt lat="46.99602" lon="5.49864">
        <ele>245</ele>
        <time>2012-01-12T16:12:06Z</time>
      </trkpt>
      <trkpt lat="46.99608" lon="5.49863">
        <ele>245</ele>
        <time>2012-01-12T16:12:10Z</time>
      </trkpt>
      <trkpt lat="46.99615" lon="5.49861">
        <ele>244</ele>
        <time>2012-01-12T16:12:15Z</time>
      </trkpt>
      <trkpt lat="46.99621" lon="5.49858">
        <ele>244</ele>
        <time>2012-01-12T16:12:20Z</time>
      </trkpt>
      <trkpt lat="46.99627" lon="5.49854">
        <ele>244</ele>
        <time>2012-01-12T16:12:24Z</time>
      </trkpt>
      <trkpt lat="46.99637" lon="5.49846">
        <ele>244</ele>
        <time>2012-01-12T16:12:31Z</time>
      </trkpt>
      <trkpt lat="46.99645" lon="5.49838">
        <ele>243</ele>
        <time>2012-01-12T16:12:39Z</time>
      </trkpt>
      <trkpt lat="46.9965" lon="5.49835">
        <ele>243</ele>
        <time>2012-01-12T16:12:44Z</time>
      </trkpt>
      <trkpt lat="46.99654" lon="5.49832">
        <ele>243</ele>
        <time>2012-01-12T16:12:48Z</time>
      </trkpt>
      <trkpt lat="46.99666" lon="5.49824">
        <ele>242</ele>
        <time>2012-01-12T16:12:56Z</time>
      </trkpt>
      <trkpt lat="46.9967" lon="5.49822">
        <ele>243</ele>
        <time>2012-01-12T16:12:59Z</time>
      </trkpt>
      <trkpt lat="46.99673" lon="5.4982">
        <ele>242</ele>
        <time>2012-01-12T16:13:02Z</time>
      </trkpt>
      <trkpt lat="46.99678" lon="5.49816">
        <ele>242</ele>
        <time>2012-01-12T16:13:06Z</time>
      </trkpt>
      <trkpt lat="46.99693" lon="5.49807">
        <ele>241</ele>
        <time>2012-01-12T16:13:18Z</time>
      </trkpt>
      <trkpt lat="46.99698" lon="5.49806">
        <ele>241</ele>
        <time>2012-01-12T16:13:21Z</time>
      </trkpt>
      <trkpt lat="46.99707" lon="5.49802">
        <ele>240</ele>
        <time>2012-01-12T16:13:28Z</time>
      </trkpt>
      <trkpt lat="46.99721" lon="5.49795">
        <ele>239</ele>
        <time>2012-01-12T16:13:40Z</time>
      </trkpt>
      <trkpt lat="46.99726" lon="5.49792">
        <ele>239</ele>
        <time>2012-01-12T16:13:44Z</time>
      </trkpt>
      <trkpt lat="46.99736" lon="5.49788">
        <ele>238</ele>
        <time>2012-01-12T16:13:52Z</time>
      </trkpt>
      <trkpt lat="46.99738" lon="5.49786">
        <ele>238</ele>
        <time>2012-01-12T16:13:54Z</time>
      </trkpt>
      <trkpt lat="46.99742" lon="5.49781">
        <ele>237</ele>
        <time>2012-01-12T16:13:58Z</time>
      </trkpt>
      <trkpt lat="46.99745" lon="5.49775">
        <ele>237</ele>
        <time>2012-01-12T16:14:02Z</time>
      </trkpt>
      <trkpt lat="46.99747" lon="5.4976">
        <ele>236</ele>
        <time>2012-01-12T16:14:11Z</time>
      </trkpt>
      <trkpt lat="46.99744" lon="5.4974">
        <ele>235</ele>
        <time>2012-01-12T16:14:23Z</time>
      </trkpt>
      <trkpt lat="46.99734" lon="5.49721">
        <ele>235</ele>
        <time>2012-01-12T16:14:40Z</time>
      </trkpt>
      <trkpt lat="46.99725" lon="5.49699">
        <ele>235</ele>
        <time>2012-01-12T16:14:56Z</time>
      </trkpt>
      <trkpt lat="46.99719" lon="5.49661">
        <ele>235</ele>
        <time>2012-01-12T16:15:14Z</time>
      </trkpt>
      <trkpt lat="46.99718" lon="5.49659">
        <ele>235</ele>
        <time>2012-01-12T16:15:15Z</time>
      </trkpt>
      <trkpt lat="46.99715" lon="5.49638">
        <ele>235</ele>
        <time>2012-01-12T16:15:29Z</time>
      </trkpt>
      <trkpt lat="46.99714" lon="5.49631">
        <ele>236</ele>
        <time>2012-01-12T16:15:33Z</time>
      </trkpt>
      <trkpt lat="46.99708" lon="5.49597">
        <ele>237</ele>
        <time>2012-01-12T16:15:50Z</time>
      </trkpt>
      <trkpt lat="46.99708" lon="5.4959">
        <ele>238</ele>
        <time>2012-01-12T16:15:54Z</time>
      </trkpt>
      <trkpt lat="46.99702" lon="5.49569">
        <ele>239</ele>
        <time>2012-01-12T16:16:08Z</time>
      </trkpt>
      <trkpt lat="46.997" lon="5.49565">
        <ele>239</ele>
        <time>2012-01-12T16:16:10Z</time>
      </trkpt>
      <trkpt lat="46.99693" lon="5.49547">
        <ele>240</ele>
        <time>2012-01-12T16:16:20Z</time>
      </trkpt>
      <trkpt lat="46.99682" lon="5.49514">
        <ele>241</ele>
        <time>2012-01-12T16:16:39Z</time>
      </trkpt>
      <trkpt lat="46.99673" lon="5.49492">
        <ele>242</ele>
        <time>2012-01-12T16:16:55Z</time>
      </trkpt>
      <trkpt lat="46.99666" lon="5.4947">
        <ele>243</ele>
        <time>2012-01-12T16:17:07Z</time>
      </trkpt>
      <trkpt lat="46.99668" lon="5.49451">
        <ele>244</ele>
        <time>2012-01-12T16:17:20Z</time>
      </trkpt>
      <trkpt lat="46.99667" lon="5.49443">
        <ele>244</ele>
        <time>2012-01-12T16:17:34Z</time>
      </trkpt>
      <trkpt lat="46.99662" lon="5.49448">
        <ele>244</ele>
        <time>2012-01-12T16:18:18Z</time>
      </trkpt>
      <trkpt lat="46.99663" lon="5.49446">
        <ele>244</ele>
        <time>2012-01-12T16:18:40Z</time>
      </trkpt>
      <trkpt lat="46.99666" lon="5.49444">
        <ele>245</ele>
        <time>2012-01-12T16:19:09Z</time>
      </trkpt>
      <trkpt lat="46.99668" lon="5.49432">
        <ele>245</ele>
        <time>2012-01-12T16:19:22Z</time>
      </trkpt>
      <trkpt lat="46.99677" lon="5.49429">
        <ele>245</ele>
        <time>2012-01-12T16:19:43Z</time>
      </trkpt>
      <trkpt lat="46.99687" lon="5.49426">
        <ele>245</ele>
        <time>2012-01-12T16:19:53Z</time>
      </trkpt>
      <trkpt lat="46.99702" lon="5.49414">
        <ele>246</ele>
        <time>2012-01-12T16:20:14Z</time>
      </trkpt>
      <trkpt lat="46.99711" lon="5.49406">
        <ele>246</ele>
        <time>2012-01-12T16:20:26Z</time>
      </trkpt>
      <trkpt lat="46.99718" lon="5.49393">
        <ele>246</ele>
        <time>2012-01-12T16:20:39Z</time>
      </trkpt>
      <trkpt lat="46.99728" lon="5.49387">
        <ele>246</ele>
        <time>2012-01-12T16:20:53Z</time>
      </trkpt>
      <trkpt lat="46.99739" lon="5.49376">
        <ele>246</ele>
        <time>2012-01-12T16:21:11Z</time>
      </trkpt>
      <trkpt lat="46.99741" lon="5.49375">
        <ele>246</ele>
        <time>2012-01-12T16:21:13Z</time>
      </trkpt>
      <trkpt lat="46.99748" lon="5.4937">
        <ele>247</ele>
        <time>2012-01-12T16:21:24Z</time>
      </trkpt>
      <trkpt lat="46.99759" lon="5.49368">
        <ele>247</ele>
        <time>2012-01-12T16:21:35Z</time>
      </trkpt>
      <trkpt lat="46.99769" lon="5.49359">
        <ele>247</ele>
        <time>2012-01-12T16:21:48Z</time>
      </trkpt>
      <trkpt lat="46.99776" lon="5.49354">
        <ele>246</ele>
        <time>2012-01-12T16:22:05Z</time>
      </trkpt>
      <trkpt lat="46.99783" lon="5.49349">
        <ele>246</ele>
        <time>2012-01-12T16:22:19Z</time>
      </trkpt>
      <trkpt lat="46.99791" lon="5.49348">
        <ele>246</ele>
        <time>2012-01-12T16:22:27Z</time>
      </trkpt>
      <trkpt lat="46.99801" lon="5.49344">
        <ele>246</ele>
        <time>2012-01-12T16:22:38Z</time>
      </trkpt>
      <trkpt lat="46.99816" lon="5.49334">
        <ele>246</ele>
        <time>2012-01-12T16:22:52Z</time>
      </trkpt>
      <trkpt lat="46.99827" lon="5.4934">
        <ele>246</ele>
        <time>2012-01-12T16:23:04Z</time>
      </trkpt>
      <trkpt lat="46.99835" lon="5.49349">
        <ele>246</ele>
        <time>2012-01-12T16:23:18Z</time>
      </trkpt>
      <trkpt lat="46.99837" lon="5.49364">
        <ele>246</ele>
        <time>2012-01-12T16:23:29Z</time>
      </trkpt>
      <trkpt lat="46.99841" lon="5.49394">
        <ele>246</ele>
        <time>2012-01-12T16:23:47Z</time>
      </trkpt>
      <trkpt lat="46.99844" lon="5.49419">
        <ele>246</ele>
        <time>2012-01-12T16:24:02Z</time>
      </trkpt>
      <trkpt lat="46.99845" lon="5.49439">
        <ele>245</ele>
        <time>2012-01-12T16:24:17Z</time>
      </trkpt>
      <trkpt lat="46.99849" lon="5.4946">
        <ele>245</ele>
        <time>2012-01-12T16:24:31Z</time>
      </trkpt>
      <trkpt lat="46.99853" lon="5.49483">
        <ele>245</ele>
        <time>2012-01-12T16:24:46Z</time>
      </trkpt>
      <trkpt lat="46.99856" lon="5.49502">
        <ele>245</ele>
        <time>2012-01-12T16:25:00Z</time>
      </trkpt>
      <trkpt lat="46.99874" lon="5.49523">
        <ele>245</ele>
        <time>2012-01-12T16:25:20Z</time>
      </trkpt>
      <trkpt lat="46.99886" lon="5.49519">
        <ele>245</ele>
        <time>2012-01-12T16:25:32Z</time>
      </trkpt>
      <trkpt lat="46.99901" lon="5.49518">
        <ele>246</ele>
        <time>2012-01-12T16:25:47Z</time>
      </trkpt>
      <trkpt lat="46.99918" lon="5.49513">
        <ele>246</ele>
        <time>2012-01-12T16:26:03Z</time>
      </trkpt>
      <trkpt lat="46.99918" lon="5.49513">
        <ele>246</ele>
        <time>2012-01-12T16:26:04Z</time>
      </trkpt>
      <trkpt lat="46.99929" lon="5.49507">
        <ele>246</ele>
        <time>2012-01-12T16:26:16Z</time>
      </trkpt>
      <trkpt lat="46.99941" lon="5.4951">
        <ele>246</ele>
        <time>2012-01-12T16:26:28Z</time>
      </trkpt>
      <trkpt lat="46.99947" lon="5.49517">
        <ele>246</ele>
        <time>2012-01-12T16:26:34Z</time>
      </trkpt>
      <trkpt lat="46.99958" lon="5.49511">
        <ele>246</ele>
        <time>2012-01-12T16:26:47Z</time>
      </trkpt>
      <trkpt lat="46.9996" lon="5.49511">
        <ele>246</ele>
        <time>2012-01-12T16:26:49Z</time>
      </trkpt>
      <trkpt lat="46.99972" lon="5.4951">
        <ele>246</ele>
        <time>2012-01-12T16:27:01Z</time>
      </trkpt>
      <trkpt lat="46.99975" lon="5.49507">
        <ele>246</ele>
        <time>2012-01-12T16:27:05Z</time>
      </trkpt>
      <trkpt lat="46.99988" lon="5.49492">
        <ele>246</ele>
        <time>2012-01-12T16:27:20Z</time>
      </trkpt>
      <trkpt lat="46.99999" lon="5.49484">
        <ele>246</ele>
        <time>2012-01-12T16:27:31Z</time>
      </trkpt>
      <trkpt lat="47.00007" lon="5.4947">
        <ele>246</ele>
        <time>2012-01-12T16:27:43Z</time>
      </trkpt>
      <trkpt lat="47.00017" lon="5.49463">
        <ele>245</ele>
        <time>2012-01-12T16:27:55Z</time>
      </trkpt>
      <trkpt lat="47.00026" lon="5.49458">
        <ele>245</ele>
        <time>2012-01-12T16:28:05Z</time>
      </trkpt>
      <trkpt lat="47.00029" lon="5.49458">
        <ele>245</ele>
        <time>2012-01-12T16:28:08Z</time>
      </trkpt>
      <trkpt lat="47.00042" lon="5.49455">
        <ele>245</ele>
        <time>2012-01-12T16:28:22Z</time>
      </trkpt>
      <trkpt lat="47.00045" lon="5.49453">
        <ele>244</ele>
        <time>2012-01-12T16:28:26Z</time>
      </trkpt>
      <trkpt lat="47.00055" lon="5.49445">
        <ele>244</ele>
        <time>2012-01-12T16:28:39Z</time>
      </trkpt>
      <trkpt lat="47.00057" lon="5.49436">
        <ele>244</ele>
        <time>2012-01-12T16:28:43Z</time>
      </trkpt>
      <trkpt lat="47.00062" lon="5.49416">
        <ele>244</ele>
        <time>2012-01-12T16:28:59Z</time>
      </trkpt>
      <trkpt lat="47.00064" lon="5.49415">
        <ele>243</ele>
        <time>2012-01-12T16:29:01Z</time>
      </trkpt>
      <trkpt lat="47.00076" lon="5.49404">
        <ele>243</ele>
        <time>2012-01-12T16:29:15Z</time>
      </trkpt>
      <trkpt lat="47.00083" lon="5.49401">
        <ele>242</ele>
        <time>2012-01-12T16:29:26Z</time>
      </trkpt>
      <trkpt lat="47.00091" lon="5.49396">
        <ele>241</ele>
        <time>2012-01-12T16:29:35Z</time>
      </trkpt>
      <trkpt lat="47.00106" lon="5.49394">
        <ele>240</ele>
        <time>2012-01-12T16:29:48Z</time>
      </trkpt>
      <trkpt lat="47.00119" lon="5.49397">
        <ele>240</ele>
        <time>2012-01-12T16:29:59Z</time>
      </trkpt>
      <trkpt lat="47.00129" lon="5.49415">
        <ele>240</ele>
        <time>2012-01-12T16:30:12Z</time>
      </trkpt>
      <trkpt lat="47.00136" lon="5.4943">
        <ele>239</ele>
        <time>2012-01-12T16:30:22Z</time>
      </trkpt>
      <trkpt lat="47.00142" lon="5.49444">
        <ele>239</ele>
        <time>2012-01-12T16:30:35Z</time>
      </trkpt>
      <trkpt lat="47.00142" lon="5.49446">
        <ele>239</ele>
        <time>2012-01-12T16:30:37Z</time>
      </trkpt>
      <trkpt lat="47.00157" lon="5.49471">
        <ele>240</ele>
        <time>2012-01-12T16:30:55Z</time>
      </trkpt>
      <trkpt lat="47.00168" lon="5.4949">
        <ele>240</ele>
        <time>2012-01-12T16:31:10Z</time>
      </trkpt>
      <trkpt lat="47.00186" lon="5.495">
        <ele>240</ele>
        <time>2012-01-12T16:31:25Z</time>
      </trkpt>
      <trkpt lat="47.00196" lon="5.49499">
        <ele>239</ele>
        <time>2012-01-12T16:31:42Z</time>
      </trkpt>
      <trkpt lat="47.00202" lon="5.49499">
        <ele>239</ele>
        <time>2012-01-12T16:32:00Z</time>
      </trkpt>
      <trkpt lat="47.00202" lon="5.49498">
        <ele>239</ele>
        <time>2012-01-12T16:32:53Z</time>
      </trkpt>
      <trkpt lat="47.00202" lon="5.495">
        <ele>238</ele>
        <time>2012-01-12T16:34:09Z</time>
      </trkpt>
      <trkpt lat="47.00203" lon="5.49505">
        <ele>237</ele>
        <time>2012-01-12T16:35:07Z</time>
      </trkpt>
      <trkpt lat="47.00203" lon="5.49507">
        <ele>237</ele>
        <time>2012-01-12T16:35:27Z</time>
      </trkpt>
      <trkpt lat="47.00217" lon="5.49502">
        <ele>236</ele>
        <time>2012-01-12T16:35:49Z</time>
      </trkpt>
      <trkpt lat="47.00221" lon="5.49481">
        <ele>235</ele>
        <time>2012-01-12T16:36:00Z</time>
      </trkpt>
      <trkpt lat="47.0023" lon="5.49465">
        <ele>234</ele>
        <time>2012-01-12T16:36:15Z</time>
      </trkpt>
      <trkpt lat="47.00248" lon="5.4945">
        <ele>232</ele>
        <time>2012-01-12T16:36:36Z</time>
      </trkpt>
      <trkpt lat="47.00258" lon="5.49441">
        <ele>232</ele>
        <time>2012-01-12T16:36:46Z</time>
      </trkpt>
      <trkpt lat="47.00259" lon="5.49407">
        <ele>231</ele>
        <time>2012-01-12T16:37:02Z</time>
      </trkpt>
      <trkpt lat="47.00264" lon="5.49384">
        <ele>230</ele>
        <time>2012-01-12T16:37:25Z</time>
      </trkpt>
      <trkpt lat="47.00271" lon="5.4937">
        <ele>229</ele>
        <time>2012-01-12T16:37:39Z</time>
      </trkpt>
      <trkpt lat="47.00283" lon="5.49355">
        <ele>229</ele>
        <time>2012-01-12T16:37:58Z</time>
      </trkpt>
      <trkpt lat="47.00287" lon="5.49339">
        <ele>228</ele>
        <time>2012-01-12T16:38:16Z</time>
      </trkpt>
      <trkpt lat="47.00289" lon="5.49337">
        <ele>228</ele>
        <time>2012-01-12T16:38:17Z</time>
      </trkpt>
      <trkpt lat="47.00293" lon="5.49331">
        <ele>228</ele>
        <time>2012-01-12T16:38:23Z</time>
      </trkpt>
      <trkpt lat="47.00305" lon="5.49329">
        <ele>228</ele>
        <time>2012-01-12T16:38:32Z</time>
      </trkpt>
      <trkpt lat="47.00312" lon="5.49322">
        <ele>228</ele>
        <time>2012-01-12T16:38:39Z</time>
      </trkpt>
      <trkpt lat="47.00337" lon="5.49298">
        <ele>229</ele>
        <time>2012-01-12T16:39:04Z</time>
      </trkpt>
      <trkpt lat="47.00353" lon="5.49275">
        <ele>231</ele>
        <time>2012-01-12T16:39:23Z</time>
      </trkpt>
      <trkpt lat="47.00372" lon="5.49256">
        <ele>233</ele>
        <time>2012-01-12T16:39:45Z</time>
      </trkpt>
      <trkpt lat="47.00393" lon="5.49231">
        <ele>234</ele>
        <time>2012-01-12T16:40:07Z</time>
      </trkpt>
      <trkpt lat="47.00397" lon="5.49224">
        <ele>233</ele>
        <time>2012-01-12T16:40:13Z</time>
      </trkpt>
      <trkpt lat="47.00418" lon="5.49202">
        <ele>234</ele>
        <time>2012-01-12T16:40:34Z</time>
      </trkpt>
      <trkpt lat="47.00434" lon="5.49181">
        <ele>235</ele>
        <time>2012-01-12T16:40:53Z</time>
      </trkpt>
      <trkpt lat="47.00455" lon="5.49155">
        <ele>235</ele>
        <time>2012-01-12T16:41:15Z</time>
      </trkpt>
      <trkpt lat="47.00458" lon="5.49154">
        <ele>235</ele>
        <time>2012-01-12T16:41:17Z</time>
      </trkpt>
      <trkpt lat="47.00474" lon="5.49134">
        <ele>235</ele>
        <time>2012-01-12T16:41:38Z</time>
      </trkpt>
      <trkpt lat="47.00487" lon="5.4916">
        <ele>235</ele>
        <time>2012-01-12T16:42:02Z</time>
      </trkpt>
      <trkpt lat="47.00496" lon="5.49201">
        <ele>235</ele>
        <time>2012-01-12T16:42:24Z</time>
      </trkpt>
      <trkpt lat="47.00506" lon="5.49237">
        <ele>233</ele>
        <time>2012-01-12T16:42:47Z</time>
      </trkpt>
      <trkpt lat="47.00513" lon="5.49275">
        <ele>233</ele>
        <time>2012-01-12T16:43:12Z</time>
      </trkpt>
      <trkpt lat="47.00526" lon="5.49311">
        <ele>231</ele>
        <time>2012-01-12T16:43:37Z</time>
      </trkpt>
      <trkpt lat="47.00535" lon="5.49351">
        <ele>230</ele>
        <time>2012-01-12T16:44:00Z</time>
      </trkpt>
      <trkpt lat="47.00539" lon="5.49386">
        <ele>227</ele>
        <time>2012-01-12T16:44:21Z</time>
      </trkpt>
      <trkpt lat="47.00549" lon="5.49417">
        <ele>227</ele>
        <time>2012-01-12T16:44:38Z</time>
      </trkpt>
      <trkpt lat="47.00549" lon="5.4944">
        <ele>228</ele>
        <time>2012-01-12T16:45:00Z</time>
      </trkpt>
      <trkpt lat="47.00559" lon="5.4947">
        <ele>229</ele>
        <time>2012-01-12T16:45:21Z</time>
      </trkpt>
      <trkpt lat="47.00578" lon="5.49496">
        <ele>230</ele>
        <time>2012-01-12T16:45:42Z</time>
      </trkpt>
      <trkpt lat="47.00594" lon="5.49496">
        <ele>232</ele>
        <time>2012-01-12T16:46:01Z</time>
      </trkpt>
      <trkpt lat="47.00613" lon="5.49481">
        <ele>232</ele>
        <time>2012-01-12T16:46:22Z</time>
      </trkpt>
      <trkpt lat="47.00637" lon="5.49484">
        <ele>233</ele>
        <time>2012-01-12T16:46:42Z</time>
      </trkpt>
      <trkpt lat="47.00654" lon="5.49494">
        <ele>233</ele>
        <time>2012-01-12T16:47:09Z</time>
      </trkpt>
      <trkpt lat="47.00639" lon="5.49497">
        <ele>234</ele>
        <time>2012-01-12T16:48:08Z</time>
      </trkpt>
      <trkpt lat="47.00651" lon="5.49477">
        <ele>234</ele>
        <time>2012-01-12T16:48:28Z</time>
      </trkpt>
      <trkpt lat="47.00652" lon="5.49475">
        <ele>234</ele>
        <time>2012-01-12T16:48:30Z</time>
      </trkpt>
      <trkpt lat="47.00653" lon="5.49459">
        <ele>234</ele>
        <time>2012-01-12T16:48:49Z</time>
      </trkpt>
      <trkpt lat="47.00652" lon="5.49459">
        <ele>239</ele>
        <time>2012-01-12T16:48:59Z</time>
      </trkpt>
      <trkpt lat="47.00653" lon="5.49456">
        <ele>239</ele>
        <time>2012-01-12T16:49:00Z</time>
      </trkpt>
      <trkpt lat="47.00654" lon="5.49454">
        <ele>234</ele>
        <time>2012-01-12T16:49:01Z</time>
      </trkpt>
      <trkpt lat="47.00654" lon="5.49453">
        <ele>234</ele>
        <time>2012-01-12T16:49:02Z</time>
      </trkpt>
      <trkpt lat="47.0066" lon="5.49428">
        <ele>235</ele>
        <time>2012-01-12T16:49:19Z</time>
      </trkpt>
      <trkpt lat="47.00671" lon="5.49405">
        <ele>235</ele>
        <time>2012-01-12T16:49:35Z</time>
      </trkpt>
      <trkpt lat="47.00683" lon="5.49371">
        <ele>235</ele>
        <time>2012-01-12T16:49:55Z</time>
      </trkpt>
      <trkpt lat="47.00696" lon="5.49349">
        <ele>235</ele>
        <time>2012-01-12T16:50:13Z</time>
      </trkpt>
      <trkpt lat="47.00702" lon="5.49312">
        <ele>235</ele>
        <time>2012-01-12T16:50:33Z</time>
      </trkpt>
      <trkpt lat="47.00703" lon="5.49304">
        <ele>235</ele>
        <time>2012-01-12T16:50:37Z</time>
      </trkpt>
      <trkpt lat="47.00714" lon="5.49294">
        <ele>235</ele>
        <time>2012-01-12T16:50:45Z</time>
      </trkpt>
      <trkpt lat="47.00718" lon="5.49268">
        <ele>235</ele>
        <time>2012-01-12T16:51:00Z</time>
      </trkpt>
      <trkpt lat="47.00727" lon="5.49238">
        <ele>235</ele>
        <time>2012-01-12T16:51:20Z</time>
      </trkpt>
      <trkpt lat="47.00742" lon="5.49208">
        <ele>234</ele>
        <time>2012-01-12T16:51:38Z</time>
      </trkpt>
      <trkpt lat="47.0075" lon="5.49178">
        <ele>233</ele>
        <time>2012-01-12T16:51:55Z</time>
      </trkpt>
      <trkpt lat="47.00759" lon="5.49154">
        <ele>233</ele>
        <time>2012-01-12T16:52:11Z</time>
      </trkpt>
      <trkpt lat="47.00762" lon="5.49151">
        <ele>233</ele>
        <time>2012-01-12T16:52:14Z</time>
      </trkpt>
      <trkpt lat="47.00775" lon="5.49117">
        <ele>232</ele>
        <time>2012-01-12T16:52:34Z</time>
      </trkpt>
      <trkpt lat="47.00784" lon="5.49088">
        <ele>231</ele>
        <time>2012-01-12T16:52:51Z</time>
      </trkpt>
      <trkpt lat="47.00785" lon="5.49083">
        <ele>231</ele>
        <time>2012-01-12T16:52:54Z</time>
      </trkpt>
      <trkpt lat="47.00796" lon="5.49047">
        <ele>230</ele>
        <time>2012-01-12T16:53:15Z</time>
      </trkpt>
      <trkpt lat="47.00804" lon="5.49016">
        <ele>228</ele>
        <time>2012-01-12T16:53:34Z</time>
      </trkpt>
      <trkpt lat="47.00812" lon="5.48997">
        <ele>227</ele>
        <time>2012-01-12T16:53:47Z</time>
      </trkpt>
      <trkpt lat="47.00821" lon="5.48978">
        <ele>227</ele>
        <time>2012-01-12T16:54:01Z</time>
      </trkpt>
      <trkpt lat="47.00835" lon="5.48941">
        <ele>226</ele>
        <time>2012-01-12T16:54:24Z</time>
      </trkpt>
      <trkpt lat="47.0084" lon="5.48925">
        <ele>226</ele>
        <time>2012-01-12T16:54:43Z</time>
      </trkpt>
      <trkpt lat="47.0087" lon="5.48941">
        <ele>223</ele>
        <time>2012-01-12T16:55:11Z</time>
      </trkpt>
      <trkpt lat="47.00892" lon="5.48958">
        <ele>221</ele>
        <time>2012-01-12T16:55:38Z</time>
      </trkpt>
      <trkpt lat="47.00906" lon="5.48971">
        <ele>221</ele>
        <time>2012-01-12T16:55:51Z</time>
      </trkpt>
      <trkpt lat="47.00925" lon="5.48985">
        <ele>221</ele>
        <time>2012-01-12T16:56:11Z</time>
      </trkpt>
      <trkpt lat="47.00937" lon="5.48998">
        <ele>221</ele>
        <time>2012-01-12T16:56:32Z</time>
      </trkpt>
      <trkpt lat="47.00962" lon="5.49009">
        <ele>220</ele>
        <time>2012-01-12T16:56:56Z</time>
      </trkpt>
      <trkpt lat="47.00979" lon="5.49028">
        <ele>219</ele>
        <time>2012-01-12T16:57:15Z</time>
      </trkpt>
      <trkpt lat="47.0099" lon="5.49049">
        <ele>218</ele>
        <time>2012-01-12T16:57:34Z</time>
      </trkpt>
      <trkpt lat="47.00987" lon="5.49052">
        <ele>218</ele>
        <time>2012-01-12T16:57:51Z</time>
      </trkpt>
      <trkpt lat="47.01002" lon="5.49045">
        <ele>217</ele>
        <time>2012-01-12T16:58:15Z</time>
      </trkpt>
      <trkpt lat="47.01014" lon="5.4902">
        <ele>216</ele>
        <time>2012-01-12T16:58:32Z</time>
      </trkpt>
      <trkpt lat="47.01037" lon="5.48989">
        <ele>218</ele>
        <time>2012-01-12T16:58:54Z</time>
      </trkpt>
      <trkpt lat="47.01046" lon="5.48971">
        <ele>221</ele>
        <time>2012-01-12T16:59:13Z</time>
      </trkpt>
      <trkpt lat="47.01063" lon="5.48945">
        <ele>223</ele>
        <time>2012-01-12T16:59:32Z</time>
      </trkpt>
      <trkpt lat="47.01068" lon="5.48938">
        <ele>224</ele>
        <time>2012-01-12T16:59:37Z</time>
      </trkpt>
      <trkpt lat="47.01078" lon="5.48913">
        <ele>224</ele>
        <time>2012-01-12T16:59:57Z</time>
      </trkpt>
      <trkpt lat="47.01078" lon="5.48868">
        <ele>222</ele>
        <time>2012-01-12T17:00:23Z</time>
      </trkpt>
      <trkpt lat="47.01084" lon="5.48835">
        <ele>220</ele>
        <time>2012-01-12T17:00:48Z</time>
      </trkpt>
      <trkpt lat="47.01085" lon="5.4882">
        <ele>219</ele>
        <time>2012-01-12T17:01:05Z</time>
      </trkpt>
      <trkpt lat="47.01086" lon="5.48806">
        <ele>219</ele>
        <time>2012-01-12T17:01:26Z</time>
      </trkpt>
      <trkpt lat="47.01075" lon="5.48792">
        <ele>218</ele>
        <time>2012-01-12T17:01:59Z</time>
      </trkpt>
      <trkpt lat="47.01085" lon="5.48783">
        <ele>216</ele>
        <time>2012-01-12T17:02:33Z</time>
      </trkpt>
      <trkpt lat="47.01095" lon="5.48775">
        <ele>213</ele>
        <time>2012-01-12T17:03:03Z</time>
      </trkpt>
      <trkpt lat="47.01093" lon="5.48759">
        <ele>210</ele>
        <time>2012-01-12T17:03:19Z</time>
      </trkpt>
      <trkpt lat="47.0109" lon="5.4874">
        <ele>207</ele>
        <time>2012-01-12T17:03:37Z</time>
      </trkpt>
      <trkpt lat="47.01091" lon="5.4872">
        <ele>203</ele>
        <time>2012-01-12T17:03:50Z</time>
      </trkpt>
      <trkpt lat="47.01104" lon="5.48713">
        <ele>200</ele>
        <time>2012-01-12T17:04:08Z</time>
      </trkpt>
      <trkpt lat="47.01118" lon="5.48696">
        <ele>199</ele>
        <time>2012-01-12T17:04:21Z</time>
      </trkpt>
      <trkpt lat="47.01128" lon="5.48688">
        <ele>198</ele>
        <time>2012-01-12T17:04:29Z</time>
      </trkpt>
      <trkpt lat="47.01148" lon="5.48692">
        <ele>198</ele>
        <time>2012-01-12T17:04:47Z</time>
      </trkpt>
      <trkpt lat="47.01151" lon="5.48692">
        <ele>198</ele>
        <time>2012-01-12T17:04:50Z</time>
      </trkpt>
      <trkpt lat="47.01154" lon="5.48693">
        <ele>198</ele>
        <time>2012-01-12T17:04:53Z</time>
      </trkpt>
      <trkpt lat="47.01172" lon="5.48691">
        <ele>198</ele>
        <time>2012-01-12T17:05:06Z</time>
      </trkpt>
      <trkpt lat="47.01194" lon="5.48685">
        <ele>198</ele>
        <time>2012-01-12T17:05:23Z</time>
      </trkpt>
      <trkpt lat="47.01215" lon="5.48683">
        <ele>197</ele>
        <time>2012-01-12T17:05:38Z</time>
      </trkpt>
      <trkpt lat="47.01234" lon="5.48681">
        <ele>197</ele>
        <time>2012-01-12T17:05:53Z</time>
      </trkpt>
      <trkpt lat="47.01254" lon="5.48673">
        <ele>196</ele>
        <time>2012-01-12T17:06:07Z</time>
      </trkpt>
      <trkpt lat="47.01276" lon="5.48668">
        <ele>197</ele>
        <time>2012-01-12T17:06:24Z</time>
      </trkpt>
      <trkpt lat="47.013" lon="5.4867">
        <ele>197</ele>
        <time>2012-01-12T17:06:40Z</time>
      </trkpt>
      <trkpt lat="47.01321" lon="5.48667">
        <ele>197</ele>
        <time>2012-01-12T17:06:55Z</time>
      </trkpt>
      <trkpt lat="47.01326" lon="5.48666">
        <ele>197</ele>
        <time>2012-01-12T17:06:59Z</time>
      </trkpt>
      <trkpt lat="47.01344" lon="5.4867">
        <ele>198</ele>
        <time>2012-01-12T17:07:14Z</time>
      </trkpt>
      <trkpt lat="47.01344" lon="5.48672">
        <ele>197</ele>
        <time>2012-01-12T17:07:16Z</time>
      </trkpt>
      <trkpt lat="47.01345" lon="5.48679">
        <ele>196</ele>
        <time>2012-01-12T17:07:20Z</time>
      </trkpt>
      <trkpt lat="47.0135" lon="5.48717">
        <ele>197</ele>
        <time>2012-01-12T17:07:38Z</time>
      </trkpt>
      <trkpt lat="47.01352" lon="5.48731">
        <ele>197</ele>
        <time>2012-01-12T17:07:44Z</time>
      </trkpt>
      <trkpt lat="47.0135" lon="5.48763">
        <ele>197</ele>
        <time>2012-01-12T17:08:02Z</time>
      </trkpt>
      <trkpt lat="47.0135" lon="5.4879">
        <ele>197</ele>
        <time>2012-01-12T17:08:17Z</time>
      </trkpt>
      <trkpt lat="47.0135" lon="5.48794">
        <ele>197</ele>
        <time>2012-01-12T17:08:19Z</time>
      </trkpt>
      <trkpt lat="47.0135" lon="5.48826">
        <ele>196</ele>
        <time>2012-01-12T17:08:35Z</time>
      </trkpt>
      <trkpt lat="47.0135" lon="5.48829">
        <ele>196</ele>
        <time>2012-01-12T17:08:36Z</time>
      </trkpt>
      <trkpt lat="47.01349" lon="5.48847">
        <ele>196</ele>
        <time>2012-01-12T17:08:47Z</time>
      </trkpt>
      <trkpt lat="47.01349" lon="5.48857">
        <ele>197</ele>
        <time>2012-01-12T17:08:52Z</time>
      </trkpt>
      <trkpt lat="47.01352" lon="5.48901">
        <ele>197</ele>
        <time>2012-01-12T17:09:12Z</time>
      </trkpt>
      <trkpt lat="47.01357" lon="5.48939">
        <ele>197</ele>
        <time>2012-01-12T17:09:31Z</time>
      </trkpt>
      <trkpt lat="47.01357" lon="5.48962">
        <ele>197</ele>
        <time>2012-01-12T17:09:43Z</time>
      </trkpt>
      <trkpt lat="47.0136" lon="5.48986">
        <ele>197</ele>
        <time>2012-01-12T17:09:56Z</time>
      </trkpt>
      <trkpt lat="47.01364" lon="5.48996">
        <ele>198</ele>
        <time>2012-01-12T17:10:02Z</time>
      </trkpt>
      <trkpt lat="47.01366" lon="5.49008">
        <ele>197</ele>
        <time>2012-01-12T17:10:10Z</time>
      </trkpt>
      <trkpt lat="47.01367" lon="5.49012">
        <ele>198</ele>
        <time>2012-01-12T17:10:12Z</time>
      </trkpt>
      <trkpt lat="47.01371" lon="5.49032">
        <ele>198</ele>
        <time>2012-01-12T17:10:24Z</time>
      </trkpt>
      <trkpt lat="47.01373" lon="5.49037">
        <ele>199</ele>
        <time>2012-01-12T17:10:28Z</time>
      </trkpt>
      <trkpt lat="47.01379" lon="5.49056">
        <ele>199</ele>
        <time>2012-01-12T17:10:40Z</time>
      </trkpt>
      <trkpt lat="47.0139" lon="5.49099">
        <ele>199</ele>
        <time>2012-01-12T17:11:03Z</time>
      </trkpt>
      <trkpt lat="47.01391" lon="5.49132">
        <ele>199</ele>
        <time>2012-01-12T17:11:17Z</time>
      </trkpt>
      <trkpt lat="47.01393" lon="5.49134">
        <ele>199</ele>
        <time>2012-01-12T17:11:19Z</time>
      </trkpt>
      <trkpt lat="47.01401" lon="5.49159">
        <ele>199</ele>
        <time>2012-01-12T17:11:34Z</time>
      </trkpt>
      <trkpt lat="47.01402" lon="5.49163">
        <ele>199</ele>
        <time>2012-01-12T17:11:37Z</time>
      </trkpt>
      <trkpt lat="47.01406" lon="5.49173">
        <ele>199</ele>
        <time>2012-01-12T17:11:42Z</time>
      </trkpt>
      <trkpt lat="47.01403" lon="5.49188">
        <ele>199</ele>
        <time>2012-01-12T17:11:48Z</time>
      </trkpt>
      <trkpt lat="47.01405" lon="5.49192">
        <ele>200</ele>
        <time>2012-01-12T17:11:51Z</time>
      </trkpt>
      <trkpt lat="47.01407" lon="5.49213">
        <ele>200</ele>
        <time>2012-01-12T17:12:00Z</time>
      </trkpt>
      <trkpt lat="47.0141" lon="5.49226">
        <ele>200</ele>
        <time>2012-01-12T17:12:09Z</time>
      </trkpt>
      <trkpt lat="47.01413" lon="5.4926">
        <ele>198</ele>
        <time>2012-01-12T17:12:27Z</time>
      </trkpt>
      <trkpt lat="47.01413" lon="5.49272">
        <ele>200</ele>
        <time>2012-01-12T17:12:32Z</time>
      </trkpt>
      <trkpt lat="47.01417" lon="5.4931">
        <ele>201</ele>
        <time>2012-01-12T17:12:50Z</time>
      </trkpt>
      <trkpt lat="47.01422" lon="5.49362">
        <ele>201</ele>
        <time>2012-01-12T17:13:16Z</time>
      </trkpt>
      <trkpt lat="47.01427" lon="5.49386">
        <ele>201</ele>
        <time>2012-01-12T17:13:36Z</time>
      </trkpt>
      <trkpt lat="47.01427" lon="5.49386">
        <ele>202</ele>
        <time>2012-01-12T17:13:51Z</time>
      </trkpt>
    </trkseg>
  </trk>
</gpx>